createdAt,value
2022-10-10T06:15:18.480Z,2.35
2022-10-10T06:17:45.583Z,2.55
2022-10-10T06:20:19.813Z,2.50
2022-10-10T06:22:48.540Z,2.70
2022-10-10T06:25:38.220Z,2.92
2022-10-10T06:28:05.134Z,2.80
2022-10-10T06:30:35.067Z,2.67
2022-10-10T06:33:12.042Z,2.50
2022-10-10T06:35:40.797Z,2.37
2022-10-10T06:38:08.075Z,2.30
2022-10-10T06:40:35.428Z,2.05
2022-10-10T06:43:03.134Z,2.35
2022-10-10T06:45:31.843Z,1.92
2022-10-10T06:48:06.001Z,1.70
2022-10-10T06:50:43.605Z,1.40
2022-10-10T06:53:10.727Z,1.53
2022-10-10T06:55:37.807Z,1.42
2022-10-10T06:58:05.105Z,1.40
2022-10-10T07:07:39.964Z,1.50
2022-10-10T07:10:07.685Z,1.60
2022-10-10T07:12:42.127Z,1.33
2022-10-10T07:15:11.779Z,1.73
2022-10-10T07:17:38.902Z,1.50
2022-10-10T07:27:12.446Z,2.10
2022-10-10T07:29:42.353Z,2.22
2022-10-10T07:32:22.764Z,2.00
2022-10-10T07:34:50.948Z,2.00
2022-10-10T07:37:18.118Z,2.30
2022-10-10T07:39:45.309Z,2.03
2022-10-10T07:42:13.658Z,2.00
2022-10-10T07:48:33.181Z,1.92
2022-10-10T07:51:00.301Z,2.10
2022-10-10T07:57:08.478Z,2.20
2022-10-10T08:07:17.208Z,2.05
2022-10-10T08:13:28.344Z,2.35
2022-10-10T08:16:03.021Z,2.65
2022-10-10T08:18:54.197Z,2.70
2022-10-10T08:21:20.815Z,2.60
2022-10-10T08:46:09.466Z,2.60
2022-10-10T08:49:27.829Z,2.70
2022-10-10T08:52:31.107Z,2.40
2022-10-10T08:55:01.648Z,2.53
2022-10-10T09:01:23.860Z,2.33
2022-10-10T09:03:56.197Z,2.75
2022-10-10T09:06:43.909Z,2.38
2022-10-10T09:12:12.744Z,2.60
2022-10-10T10:06:33.969Z,2.30
2022-10-10T10:09:03.752Z,2.27
2022-10-10T10:11:36.477Z,2.33
2022-10-10T10:14:07.893Z,2.40
2022-10-10T10:16:37.321Z,2.30
2022-10-10T10:19:05.696Z,2.33
2022-10-10T10:21:51.653Z,2.20
2022-10-10T10:24:21.518Z,2.53
2022-10-10T10:26:49.235Z,2.30
2022-10-10T10:36:11.543Z,2.40
2022-10-10T10:38:56.566Z,2.60
2022-10-10T10:41:34.050Z,2.45
2022-10-10T10:44:07.941Z,2.50
2022-10-10T10:46:41.125Z,2.40
2022-10-10T10:49:25.660Z,2.40
2022-10-10T10:52:15.875Z,2.42
2022-10-10T10:55:16.751Z,2.40
2022-10-10T11:01:55.867Z,2.85
2022-10-10T11:05:29.642Z,2.45
2022-10-10T11:08:31.187Z,2.85
2022-10-10T11:11:26.941Z,2.95
2022-10-10T11:17:22.911Z,2.80
2022-10-10T11:19:57.942Z,2.72
2022-10-10T11:25:39.806Z,3.15
2022-10-10T11:28:32.975Z,3.03
2022-10-10T11:31:03.686Z,3.20
2022-10-10T11:37:07.535Z,2.80
2022-10-10T11:39:40.043Z,3.22
2022-10-10T11:42:15.780Z,3.10
2022-10-10T11:45:06.819Z,3.22
2022-10-10T11:47:36.355Z,3.45
2022-10-10T11:53:04.470Z,3.20
2022-10-10T11:55:38.755Z,3.28
2022-10-10T12:00:55.036Z,3.45
2022-10-10T12:03:22.111Z,3.60
2022-10-10T12:05:54.113Z,3.47
2022-10-10T12:08:22.885Z,3.45
2022-10-10T12:13:36.065Z,3.70
2022-10-10T12:16:05.952Z,3.90
2022-10-10T12:21:19.110Z,3.78
2022-10-10T12:23:48.513Z,3.80
2022-10-10T12:26:17.619Z,3.85
2022-10-10T12:29:02.216Z,3.75
2022-10-10T12:31:31.379Z,3.90
2022-10-10T12:34:00.082Z,4.35
2022-10-10T12:41:58.430Z,3.80
2022-10-10T12:49:57.569Z,4.00
2022-10-10T12:52:27.507Z,3.67
2022-10-10T12:54:55.802Z,3.20
2022-10-10T12:57:29.606Z,3.70
2022-10-10T13:00:01.823Z,3.20
2022-10-10T13:02:29.316Z,3.70
2022-10-10T13:04:59.460Z,3.63
2022-10-10T13:07:26.833Z,3.45
2022-10-10T13:09:55.136Z,3.90
2022-10-10T13:12:23.772Z,3.80
2022-10-10T13:14:50.766Z,3.90
2022-10-10T13:17:27.306Z,4.10
2022-10-10T13:19:55.196Z,3.78
2022-10-10T13:22:22.339Z,3.60
2022-10-10T13:24:50.010Z,3.58
2022-10-10T13:27:20.436Z,3.60
2022-10-10T13:29:47.901Z,3.78
2022-10-10T13:32:16.271Z,3.60
2022-10-10T13:34:44.716Z,2.97
2022-10-10T13:40:34.707Z,3.47
2022-10-10T13:43:01.705Z,3.80
2022-10-10T13:45:30.996Z,3.80
2022-10-10T13:48:11.601Z,3.63
2022-10-10T13:58:51.072Z,3.45
2022-10-10T14:01:23.175Z,3.43
2022-10-10T14:03:51.044Z,3.38
2022-10-10T14:06:19.545Z,3.58
2022-10-10T14:08:47.149Z,3.30
2022-10-10T14:11:18.654Z,3.90
2022-10-10T14:13:48.685Z,3.75
